aviador You're here:

KCLL Decoded Metar

COLLEGE STATION in TX, USA
Report Time2018-07-22 03:53:00
UTC Time2018-07-22 04:51:17
Flight Rules vfr VFR
Wind170° at 07 kt
W.Decomp.*RWY 16: 7.0 kt HW 0.5 kt RCW
RWY 22: 3.9 kt HW 5.8 kt LCW
RWY 10: 3.1 kt HW 6.3 kt RCW
W.Rank170° ranks 1
Current wind is below 170° avg. (9.1)
Visibility9999 m
Phenomena:N/A
Clouds:N/A
Expected CloudBase > 2,400 ft AGL from Temp-Dew spread
CeilingNone
Temp30°C (ISA +16)
Dew Point24°C (70% RH)
Heat Index35.0°C
QNH1015 hPa
Density Alt2,431 ft
Elevation315 ft
Report Wrong Elevation
Raw Report
KCLL 220353Z AUTO 17007KT 10SM CLR 30/24 A2996 RMK AO2 SLP139
T03000239=

Extra information for KCLL:More info

Metar Taf Metar & Taf Last 4 Metars F.Rules Stats Wind Profile Meteogram Temp Stats Airport Information Weather charts Add Link Nearby VenuesMetar ALERT Operation Metar Decoded Social comments

AIRNAV info for KCLL